Time;durP1;ratioP1;P1;durP2;ratioP2;P2;SDS_P1;SDS_P2;PMS_P1;PMS_P2;Temp;Humidity;BMP_temperature;BMP_pressure;BME280_temperature;BME280_humidity;BME280_pressure;Samples;Min_cycle;Max_cycle;Signal;HPM_P1;HPM_P2
2021/07/02 00:01:07;;;;;;;0.00;0.00;;;;;;;21.91;65.12;98214.84;5071785;28;20031;-77
2021/07/02 00:03:32;;;;;;;0.00;0.00;;;;;;;21.85;65.27;98210.88;5071417;28;20076;-76
2021/07/02 00:05:58;;;;;;;0.00;0.00;;;;;;;21.83;65.56;98212.41;5054036;28;20067;-78
2021/07/02 00:08:26;;;;;;;0.10;0.10;;;;;;;21.75;65.65;98209.63;5071808;28;20028;-76
2021/07/02 00:10:53;;;;;;;0.05;0.05;;;;;;;21.75;65.54;98206.91;5071697;28;20024;-77
2021/07/02 00:13:18;;;;;;;0.00;0.00;;;;;;;21.73;66.17;98213.88;5071616;28;20075;-80
2021/07/02 00:15:44;;;;;;;0.00;0.00;;;;;;;21.71;66.30;98208.00;5054836;28;20064;-78
2021/07/02 00:18:10;;;;;;;0.10;0.10;;;;;;;21.70;66.42;98211.88;5072098;28;20028;-77
2021/07/02 00:20:35;;;;;;;0.10;0.10;;;;;;;21.60;66.65;98218.75;5074908;28;20403;-77
2021/07/02 00:23:00;;;;;;;0.00;0.00;;;;;;;21.62;66.66;98218.38;5076363;28;20031;-77
2021/07/02 00:25:26;;;;;;;0.00;0.00;;;;;;;21.59;66.47;98200.88;5079974;28;20054;-78
2021/07/02 00:27:51;;;;;;;0.08;0.08;;;;;;;21.56;66.70;98202.38;5071333;28;20036;-78
2021/07/02 00:30:17;;;;;;;0.00;0.00;;;;;;;21.59;66.66;98201.66;5071476;28;20077;-77
2021/07/02 00:32:43;;;;;;;0.00;0.00;;;;;;;21.61;66.79;98205.94;5070998;28;20097;-77
2021/07/02 00:35:09;;;;;;;0.08;0.08;;;;;;;21.59;66.80;98201.66;5053536;28;20032;-78
2021/07/02 00:37:35;;;;;;;0.10;0.10;;;;;;;21.60;66.66;98202.44;5041467;28;20119;-79
2021/07/02 00:40:00;;;;;;;0.10;0.10;;;;;;;21.53;66.93;98194.94;5033226;28;20099;-77
2021/07/02 00:42:26;;;;;;;0.00;0.00;;;;;;;21.53;67.30;98194.94;5036534;28;20111;-78
2021/07/02 00:44:51;;;;;;;0.00;0.00;;;;;;;21.49;67.53;98193.34;5053199;28;20427;-77
2021/07/02 00:47:19;;;;;;;0.00;0.00;;;;;;;21.44;67.54;98184.34;5070810;28;20021;-77
2021/07/02 00:49:45;;;;;;;0.00;0.00;;;;;;;21.42;67.44;98194.00;5071014;28;20024;-78
2021/07/02 00:52:12;;;;;;;0.15;0.15;;;;;;;21.37;67.63;98189.72;5071333;28;20395;-77
2021/07/02 00:54:39;;;;;;;0.00;0.00;;;;;;;21.37;67.85;98183.47;5052975;28;20053;-77
2021/07/02 00:57:06;;;;;;;0.00;0.00;;;;;;;21.39;67.70;98181.16;5050404;28;20029;-77
2021/07/02 00:59:32;;;;;;;0.00;0.00;;;;;;;21.40;67.70;98172.63;5050851;28;20504;-78
2021/07/02 01:01:59;;;;;;;0.00;0.00;;;;;;;21.42;67.97;98172.25;5056275;28;20033;-78
2021/07/02 01:04:25;;;;;;;0.10;0.10;;;;;;;21.42;67.69;98178.50;5071064;28;20021;-79
2021/07/02 01:06:52;;;;;;;0.08;0.08;;;;;;;21.44;67.74;98178.13;5039461;28;20035;-78
2021/07/02 01:09:19;;;;;;;0.00;0.00;;;;;;;21.43;67.53;98192.88;5057272;28;20063;-76
2021/07/02 01:11:44;;;;;;;0.00;0.00;;;;;;;21.40;67.86;98196.34;5052565;28;20267;-77
2021/07/02 01:14:10;;;;;;;0.00;0.00;;;;;;;21.42;67.62;98199.44;5053065;28;20024;-78
2021/07/02 01:16:38;;;;;;;0.00;0.00;;;;;;;21.40;67.52;98201.78;5069438;28;20059;-78
2021/07/02 01:19:03;;;;;;;0.05;0.05;;;;;;;21.37;67.39;98191.63;5050410;28;20059;-77
2021/07/02 01:21:29;;;;;;;0.00;0.00;;;;;;;21.36;67.23;98192.78;5061537;28;20028;-77
2021/07/02 01:23:54;;;;;;;0.00;0.00;;;;;;;21.32;67.42;98186.50;5050536;28;20111;-77
2021/07/02 01:26:20;;;;;;;0.00;0.00;;;;;;;21.30;67.22;98191.53;5050811;28;20053;-82
2021/07/02 01:28:45;;;;;;;0.00;0.00;;;;;;;21.26;67.19;98188.75;5032680;28;20044;-83
2021/07/02 01:31:11;;;;;;;0.00;0.00;;;;;;;21.23;67.65;98184.06;5032822;28;20036;-82
2021/07/02 01:33:36;;;;;;;0.05;0.05;;;;;;;21.19;67.68;98196.81;5042470;28;20416;-82
2021/07/02 01:36:07;;;;;;;0.10;0.10;;;;;;;21.16;67.86;98205.72;5067865;28;20031;-84
2021/07/02 01:38:34;;;;;;;0.00;0.00;;;;;;;21.15;68.12;98212.31;5050889;28;20041;-84
2021/07/02 01:40:59;;;;;;;0.00;0.00;;;;;;;21.11;68.19;98213.03;5069240;28;20028;-83
2021/07/02 01:43:26;;;;;;;0.10;0.10;;;;;;;21.09;68.32;98212.63;5069405;28;20062;-78
2021/07/02 01:45:52;;;;;;;0.00;0.00;;;;;;;21.10;68.39;98213.41;5070627;28;20476;-78
2021/07/02 01:48:17;;;;;;;0.00;0.00;;;;;;;21.07;68.38;98212.22;5043185;28;20075;-78
2021/07/02 01:50:43;;;;;;;0.00;0.00;;;;;;;21.06;68.56;98213.34;5050254;28;20028;-79
2021/07/02 01:53:09;;;;;;;0.08;0.08;;;;;;;21.07;68.58;98203.28;5032589;28;20021;-80
2021/07/02 01:55:34;;;;;;;0.00;0.00;;;;;;;21.05;68.39;98203.63;5068840;28;20126;-77
2021/07/02 01:58:00;;;;;;;0.10;0.10;;;;;;;21.05;68.65;98206.34;5070613;28;20479;-80
2021/07/02 02:00:25;;;;;;;0.10;0.10;;;;;;;21.05;68.52;98200.91;5069176;28;20065;-79
2021/07/02 02:02:50;;;;;;;0.10;0.10;;;;;;;21.05;68.51;98189.25;5069650;28;20498;-77
2021/07/02 02:05:16;;;;;;;0.00;0.00;;;;;;;21.04;68.53;98191.19;5070063;28;20040;-78
2021/07/02 02:07:41;;;;;;;0.00;0.00;;;;;;;21.06;68.51;98201.72;5072625;28;20503;-77
2021/07/02 02:10:08;;;;;;;0.10;0.10;;;;;;;21.02;68.62;98201.66;5057799;28;20029;-77
2021/07/02 02:12:33;;;;;;;0.00;0.00;;;;;;;20.99;68.46;98198.88;5053791;28;20025;-79
2021/07/02 02:14:58;;;;;;;0.10;0.10;;;;;;;20.98;68.83;98195.38;5053718;28;20040;-78
2021/07/02 02:17:24;;;;;;;0.10;0.10;;;;;;;20.96;69.32;98197.69;5055104;28;20025;-76
2021/07/02 02:19:49;;;;;;;0.00;0.00;;;;;;;20.95;69.54;98193.41;5071240;28;20515;-76
2021/07/02 02:22:15;;;;;;;0.00;0.00;;;;;;;20.95;69.94;98196.13;5073496;28;20102;-76
2021/07/02 02:24:40;;;;;;;0.00;0.00;;;;;;;20.92;69.78;98197.63;5064804;28;20057;-77
2021/07/02 02:27:06;;;;;;;0.00;0.00;;;;;;;20.95;69.61;98196.88;5084413;28;20047;-79
2021/07/02 02:29:31;;;;;;;0.00;0.00;;;;;;;20.99;69.56;98201.59;5067129;28;20024;-77
2021/07/02 02:31:58;;;;;;;0.00;0.00;;;;;;;21.00;69.64;98203.19;5093865;28;20399;-77
2021/07/02 02:34:23;;;;;;;0.00;0.00;;;;;;;21.01;69.88;98207.47;5094150;28;20443;-78
2021/07/02 02:36:49;;;;;;;0.45;0.45;;;;;;;21.01;69.48;98215.63;5090551;28;20097;-76
2021/07/02 02:39:15;;;;;;;0.08;0.08;;;;;;;21.00;69.60;98217.53;5068636;28;20032;-77
2021/07/02 02:41:40;;;;;;;0.10;0.10;;;;;;;21.00;69.63;98220.25;5073303;28;20020;-79
2021/07/02 02:44:06;;;;;;;0.10;0.10;;;;;;;20.98;69.15;98225.28;5073023;28;20505;-78
2021/07/02 02:46:32;;;;;;;0.10;0.10;;;;;;;20.99;68.66;98247.81;5055794;28;20037;-78
2021/07/02 02:48:57;;;;;;;0.00;0.00;;;;;;;20.96;68.19;98241.19;5089582;28;20032;-76
2021/07/02 02:51:23;;;;;;;0.20;0.20;;;;;;;20.87;67.99;98252.31;5093501;28;20061;-78
2021/07/02 02:53:48;;;;;;;0.00;0.00;;;;;;;20.78;68.95;98246.34;5090825;28;20036;-77
2021/07/02 02:56:13;;;;;;;0.28;0.28;;;;;;;20.72;69.87;98261.38;5073459;28;20103;-77
2021/07/02 02:58:39;;;;;;;0.10;0.10;;;;;;;20.65;70.63;98253.84;5071625;28;20025;-79
2021/07/02 03:01:04;;;;;;;0.10;0.10;;;;;;;20.61;71.42;98251.06;5072890;28;20108;-78
2021/07/02 03:03:30;;;;;;;0.10;0.10;;;;;;;20.64;72.03;98257.69;5073030;28;20490;-77
2021/07/02 03:05:55;;;;;;;0.00;0.00;;;;;;;20.70;72.11;98269.84;5073885;28;20029;-76
2021/07/02 03:08:20;;;;;;;0.00;0.00;;;;;;;20.69;72.43;98279.16;5072621;28;20033;-76
2021/07/02 03:10:46;;;;;;;0.10;0.10;;;;;;;20.66;72.51;98287.25;5072305;28;20052;-76
2021/07/02 03:13:12;;;;;;;0.30;0.30;;;;;;;20.68;72.02;98288.44;5073014;28;20028;-76
2021/07/02 03:15:37;;;;;;;0.03;0.03;;;;;;;20.61;72.22;98289.09;5072594;28;20028;-77
2021/07/02 03:18:03;;;;;;;0.10;0.10;;;;;;;20.51;72.19;98287.00;5072046;28;20089;-78
2021/07/02 03:20:29;;;;;;;0.20;0.20;;;;;;;20.40;72.06;98286.78;5073240;28;20037;-77
2021/07/02 03:22:54;;;;;;;0.30;0.30;;;;;;;20.25;72.31;98293.91;5054907;28;20120;-78
2021/07/02 03:25:20;;;;;;;0.08;0.08;;;;;;;20.23;72.55;98290.75;5090689;28;20040;-78
2021/07/02 03:27:45;;;;;;;0.03;0.03;;;;;;;20.29;72.56;98283.09;5054671;28;20063;-78
2021/07/02 03:30:13;;;;;;;0.20;0.20;;;;;;;20.45;72.16;98291.16;5054359;28;20033;-79
2021/07/02 03:32:38;;;;;;;0.00;0.00;;;;;;;20.73;72.00;98284.69;5070328;28;20074;-77
2021/07/02 03:35:07;;;;;;;0.00;0.00;;;;;;;21.06;70.99;98296.84;5054309;28;20131;-76
2021/07/02 03:37:32;;;;;;;0.10;0.10;;;;;;;21.38;69.67;98293.81;5072279;28;20021;-75
2021/07/02 03:39:57;;;;;;;0.25;0.25;;;;;;;21.69;69.13;98305.53;5071758;28;20024;-76
2021/07/02 03:42:23;;;;;;;0.73;0.55;;;;;;;22.06;67.96;98313.00;5070850;28;20032;-76
2021/07/02 03:44:49;;;;;;;0.00;0.00;;;;;;;22.33;67.41;98312.94;5071754;28;20040;-75
2021/07/02 03:47:15;;;;;;;0.10;0.10;;;;;;;22.65;66.32;98313.25;5087975;28;20042;-76
2021/07/02 03:49:40;;;;;;;0.32;0.32;;;;;;;22.88;65.84;98311.53;5086240;28;20032;-76
2021/07/02 03:52:06;;;;;;;0.45;0.45;;;;;;;23.17;65.17;98313.34;5092352;28;20511;-77
2021/07/02 03:54:31;;;;;;;0.10;0.10;;;;;;;23.44;64.20;98310.41;5092215;28;20039;-77
2021/07/02 03:57:13;;;;;;;0.60;0.50;;;;;;;23.59;63.80;98311.25;5079648;28;20460;-77
2021/07/02 03:59:43;;;;;;;0.45;0.45;;;;;;;23.77;62.95;98311.38;5072076;28;20116;-77
2021/07/02 04:02:10;;;;;;;0.20;0.20;;;;;;;23.92;62.62;98309.50;5071731;28;20082;-76
2021/07/02 04:04:36;;;;;;;0.10;0.10;;;;;;;24.05;62.27;98315.41;5073460;28;20031;-76
2021/07/02 04:07:06;;;;;;;1.05;0.52;;;;;;;24.23;61.79;98303.75;5091562;28;20019;-75
2021/07/02 04:09:32;;;;;;;0.57;0.57;;;;;;;24.45;61.53;98305.38;5091857;28;20035;-78
2021/07/02 04:11:59;;;;;;;0.10;0.10;;;;;;;24.67;60.66;98297.25;5091602;28;20024;-79
2021/07/02 04:14:24;;;;;;;0.43;0.43;;;;;;;24.81;59.91;98295.69;5084103;28;20056;-76
2021/07/02 04:16:50;;;;;;;0.00;0.00;;;;;;;25.01;59.92;98290.59;5057719;28;20059;-77
2021/07/02 04:19:15;;;;;;;0.32;0.32;;;;;;;25.19;59.50;98296.84;5071437;28;20046;-76
2021/07/02 04:21:41;;;;;;;0.50;0.50;;;;;;;25.38;58.77;98281.22;5071246;28;20025;-77
2021/07/02 04:24:07;;;;;;;0.45;0.45;;;;;;;25.64;58.31;98296.38;5071338;28;20098;-76
2021/07/02 04:26:33;;;;;;;0.30;0.30;;;;;;;26.01;57.85;98297.03;5082325;28;20044;-76
2021/07/02 04:28:58;;;;;;;0.00;0.00;;;;;;;26.38;55.96;98298.44;5091279;28;20024;-76
2021/07/02 04:31:24;;;;;;;0.55;0.47;;;;;;;26.66;55.28;98293.97;5085179;28;20108;-76
2021/07/02 04:33:49;;;;;;;0.43;0.43;;;;;;;26.83;55.03;98293.06;5070927;28;20032;-77
2021/07/02 04:36:15;;;;;;;0.65;0.65;;;;;;;27.02;54.25;98301.16;5070891;28;20123;-77
2021/07/02 04:38:41;;;;;;;0.08;0.08;;;;;;;27.25;53.31;98306.03;5073290;28;20028;-76
2021/07/02 04:41:08;;;;;;;0.25;0.25;;;;;;;27.50;53.05;98305.81;5091349;28;20098;-75
2021/07/02 04:43:33;;;;;;;0.10;0.10;;;;;;;27.92;52.26;98314.75;5073075;28;20028;-77
2021/07/02 04:45:59;;;;;;;0.10;0.10;;;;;;;28.16;51.33;98323.13;5090807;28;20550;-75
2021/07/02 04:48:24;;;;;;;0.20;0.20;;;;;;;28.48;50.85;98321.91;5090281;28;20026;-75
2021/07/02 04:50:50;;;;;;;0.08;0.08;;;;;;;28.90;49.23;98321.69;5090961;28;20055;-75
2021/07/02 04:53:17;;;;;;;1.17;0.85;;;;;;;29.04;48.19;98326.97;5091163;28;20111;-74
2021/07/02 04:55:43;;;;;;;0.00;0.00;;;;;;;29.20;47.83;98329.06;5090968;28;20032;-74
2021/07/02 04:58:08;;;;;;;0.00;0.00;;;;;;;29.29;47.80;98342.28;5091388;28;20101;-75
2021/07/02 05:00:34;;;;;;;0.00;0.00;;;;;;;29.30;47.56;98332.84;5072683;28;20063;-76
2021/07/02 05:02:59;;;;;;;0.20;0.20;;;;;;;29.46;46.57;98345.19;5090749;28;20032;-77
2021/07/02 05:05:24;;;;;;;0.10;0.10;;;;;;;29.51;46.47;98330.91;5090703;28;20483;-77
2021/07/02 05:07:50;;;;;;;0.10;0.10;;;;;;;29.60;46.46;98339.41;5090744;28;20102;-74
2021/07/02 05:10:15;;;;;;;0.10;0.10;;;;;;;29.49;47.15;98344.31;5090760;28;20113;-75
2021/07/02 05:12:41;;;;;;;0.08;0.08;;;;;;;29.45;46.99;98346.38;5090395;28;20031;-75
2021/07/02 05:15:07;;;;;;;3.20;1.55;;;;;;;29.33;46.61;98348.56;5090573;28;20035;-75
2021/07/02 05:17:32;;;;;;;0.00;0.00;;;;;;;29.18;47.66;98358.22;5090678;28;20024;-75
2021/07/02 05:19:58;;;;;;;0.65;0.65;;;;;;;29.14;47.07;98365.72;5090593;28;20024;-75
2021/07/02 05:22:24;;;;;;;0.50;0.50;;;;;;;29.21;47.89;98366.41;5090790;28;20028;-75
2021/07/02 05:24:49;;;;;;;0.35;0.35;;;;;;;29.19;47.72;98368.78;5090479;28;20068;-75
2021/07/02 05:27:16;;;;;;;0.30;0.30;;;;;;;29.10;48.34;98373.28;5090929;28;20023;-75
2021/07/02 05:29:42;;;;;;;0.00;0.00;;;;;;;28.97;47.98;98368.38;5090871;28;20032;-75
2021/07/02 05:32:08;;;;;;;0.43;0.43;;;;;;;28.79;48.65;98379.66;5090354;28;20051;-74
2021/07/02 05:34:34;;;;;;;0.20;0.20;;;;;;;28.52;49.50;98380.38;5090778;28;20029;-76
2021/07/02 05:37:00;;;;;;;0.10;0.10;;;;;;;28.41;49.88;98390.75;5090541;28;20020;-75
2021/07/02 05:39:25;;;;;;;0.38;0.32;;;;;;;28.27;50.35;98394.44;5090788;28;20422;-75
2021/07/02 05:41:50;;;;;;;0.70;0.70;;;;;;;28.09;50.27;98392.72;5091306;28;20076;-77
2021/07/02 05:44:16;;;;;;;0.10;0.10;;;;;;;28.15;50.38;98389.50;5094540;28;20043;-75
2021/07/02 05:46:41;;;;;;;0.25;0.25;;;;;;;28.17;50.30;98393.38;5094166;28;20028;-75
2021/07/02 05:49:07;;;;;;;0.98;0.98;;;;;;;28.08;49.76;98398.63;5094173;28;20180;-75
2021/07/02 05:51:32;;;;;;;1.70;0.35;;;;;;;28.06;49.66;98398.25;5094543;28;20016;-75
2021/07/02 05:53:58;;;;;;;0.55;0.43;;;;;;;27.98;50.33;98403.03;5076003;28;20028;-76
2021/07/02 05:56:28;;;;;;;0.73;0.73;;;;;;;27.76;50.66;98391.47;5094199;28;20082;-75
2021/07/02 05:58:57;;;;;;;0.00;0.00;;;;;;;27.72;50.77;98407.19;5094073;28;20024;-75
2021/07/02 06:01:23;;;;;;;0.60;0.60;;;;;;;27.67;51.16;98402.94;5094168;28;20105;-75
2021/07/02 06:03:48;;;;;;;0.20;0.20;;;;;;;27.80;51.21;98398.47;5093898;28;20058;-75
2021/07/02 06:06:14;;;;;;;0.38;0.38;;;;;;;28.00;51.08;98408.09;5093853;28;20016;-75
2021/07/02 06:08:39;;;;;;;0.25;0.25;;;;;;;28.19;50.25;98410.25;5093693;28;20550;-75
2021/07/02 06:11:05;;;;;;;0.17;0.17;;;;;;;28.28;49.53;98416.06;5093518;28;20525;-75
2021/07/02 06:13:31;;;;;;;0.25;0.25;;;;;;;28.49;49.68;98416.97;5093943;28;20024;-75
2021/07/02 06:15:56;;;;;;;0.35;0.32;;;;;;;28.72;48.78;98419.06;5093535;28;20059;-75
2021/07/02 06:18:22;;;;;;;0.28;0.28;;;;;;;28.86;48.30;98423.56;5093945;28;20085;-76
2021/07/02 06:20:51;;;;;;;0.30;0.30;;;;;;;29.08;47.80;98415.75;5093696;28;20149;-74
2021/07/02 06:23:21;;;;;;;0.20;0.20;;;;;;;29.24;46.92;98412.38;5092470;28;20579;-75
2021/07/02 06:25:47;;;;;;;1.75;0.70;;;;;;;29.32;46.73;98409.53;5093620;28;20052;-75
2021/07/02 06:28:13;;;;;;;0.43;0.40;;;;;;;29.34;47.21;98421.69;5093554;28;20047;-76
2021/07/02 06:30:40;;;;;;;0.35;0.35;;;;;;;29.31;47.18;98411.50;5093681;28;20067;-75
2021/07/02 06:33:06;;;;;;;0.00;0.00;;;;;;;29.31;47.18;98414.28;5093436;28;20035;-75
2021/07/02 06:35:32;;;;;;;0.43;0.43;;;;;;;29.28;47.30;98409.56;5075212;28;20115;-75
2021/07/02 06:37:57;;;;;;;0.50;0.50;;;;;;;29.39;47.26;98409.41;5093069;28;20027;-76
2021/07/02 06:40:23;;;;;;;0.85;0.85;;;;;;;29.54;47.07;98410.72;5093592;28;20028;-75
2021/07/02 06:42:49;;;;;;;0.50;0.50;;;;;;;29.69;46.60;98404.97;5093042;28;20535;-75
2021/07/02 06:45:16;;;;;;;0.00;0.00;;;;;;;29.90;45.40;98414.84;5093374;28;20035;-76
2021/07/02 06:48:02;;;;;;;0.13;0.13;;;;;;;30.12;45.64;98403.41;5093608;28;20387;-75
2021/07/02 06:50:30;;;;;;;0.00;0.00;;;;;;;30.36;44.58;98404.09;5093240;28;20036;-75
2021/07/02 06:52:56;;;;;;;0.15;0.15;;;;;;;30.44;44.24;98404.72;5091929;28;20409;-75
2021/07/02 06:55:21;;;;;;;0.00;0.00;;;;;;;30.44;43.99;98402.72;5074345;28;20024;-75
2021/07/02 06:57:47;;;;;;;0.20;0.20;;;;;;;30.52;44.18;98402.59;5092776;28;20050;-76
2021/07/02 07:00:13;;;;;;;0.85;0.82;;;;;;;30.48;44.10;98402.66;5093264;28;20106;-75
2021/07/02 07:02:39;;;;;;;0.80;0.45;;;;;;;30.43;44.57;98397.66;5093143;28;20024;-75
2021/07/02 07:05:05;;;;;;;0.00;0.00;;;;;;;30.48;43.73;98397.13;5092890;28;20063;-75
2021/07/02 07:07:30;;;;;;;0.00;0.00;;;;;;;30.58;43.54;98393.41;5092733;28;20402;-75
2021/07/02 07:09:56;;;;;;;0.82;0.82;;;;;;;30.60;42.99;98396.53;5092562;28;20032;-75
2021/07/02 07:12:21;;;;;;;0.47;0.47;;;;;;;30.60;42.83;98390.22;5093011;28;20024;-74
2021/07/02 07:14:48;;;;;;;0.65;0.55;;;;;;;30.62;42.63;98396.09;5091113;28;20035;-75
2021/07/02 07:17:13;;;;;;;0.00;0.00;;;;;;;30.55;42.96;98387.97;5092951;28;20452;-74
2021/07/02 07:19:39;;;;;;;0.00;0.00;;;;;;;30.44;42.82;98390.94;5093146;28;20053;-74
2021/07/02 07:22:05;;;;;;;0.03;0.03;;;;;;;30.28;43.14;98395.19;5092545;28;20031;-76
2021/07/02 07:24:30;;;;;;;0.32;0.32;;;;;;;30.13;43.57;98389.19;5092624;28;20020;-76
2021/07/02 07:26:56;;;;;;;0.20;0.20;;;;;;;29.93;42.23;98389.22;5092542;28;20107;-76
2021/07/02 07:29:23;;;;;;;0.40;0.40;;;;;;;29.69;42.48;98391.19;5092430;28;20032;-76
2021/07/02 07:31:49;;;;;;;0.20;0.20;;;;;;;29.47;43.77;98386.06;5092315;28;20111;-76
2021/07/02 07:34:23;;;;;;;0.55;0.55;;;;;;;29.28;44.50;98387.53;5092548;28;20067;-76
2021/07/02 07:36:53;;;;;;;0.52;0.52;;;;;;;29.13;45.55;98375.97;5092280;28;20024;-76
2021/07/02 07:39:19;;;;;;;0.45;0.45;;;;;;;29.00;45.05;98383.28;5092408;28;20024;-76
2021/07/02 07:41:44;;;;;;;0.75;0.75;;;;;;;28.87;44.07;98386.59;5091194;28;20069;-76
2021/07/02 07:44:12;;;;;;;0.20;0.20;;;;;;;28.77;44.50;98387.53;5090753;28;20020;-76
2021/07/02 07:46:37;;;;;;;11.27;2.33;;;;;;;28.73;44.75;98398.63;5092377;28;20142;-76
2021/07/02 07:49:02;;;;;;;0.20;0.20;;;;;;;28.65;44.14;98394.38;5092123;28;20500;-76
2021/07/02 07:53:53;;;;;;;0.20;0.20;;;;;;;28.68;45.09;98392.75;5091934;28;20482;-76
2021/07/02 07:56:19;;;;;;;0.20;0.20;;;;;;;28.67;43.69;98388.44;5091892;28;20053;-76
2021/07/02 07:58:44;;;;;;;0.10;0.10;;;;;;;28.66;44.01;98392.38;5092127;28;20032;-76
2021/07/02 08:01:10;;;;;;;0.10;0.10;;;;;;;28.64;43.46;98394.75;5090500;28;20031;-76
2021/07/02 08:03:35;;;;;;;0.17;0.17;;;;;;;28.48;44.92;98392.63;5091951;28;20032;-76
2021/07/02 08:06:01;;;;;;;0.60;0.60;;;;;;;28.46;46.50;98389.53;5073454;28;20066;-76
2021/07/02 08:08:26;;;;;;;0.10;0.10;;;;;;;28.48;45.77;98387.13;5091710;28;20024;-75
2021/07/02 08:10:52;;;;;;;0.38;0.38;;;;;;;28.47;46.44;98380.09;5091412;28;20047;-76
2021/07/02 08:13:17;;;;;;;0.40;0.40;;;;;;;28.61;46.81;98385.38;5091661;28;20036;-76
2021/07/02 08:15:43;;;;;;;0.00;0.00;;;;;;;28.73;45.50;98381.31;5073705;28;20039;-76
2021/07/02 08:18:09;;;;;;;0.00;0.00;;;;;;;28.86;45.62;98371.28;5091618;28;20024;-76
2021/07/02 08:20:34;;;;;;;0.90;0.63;;;;;;;29.01;44.55;98377.34;5090312;28;20051;-77
2021/07/02 08:23:00;;;;;;;0.75;0.28;;;;;;;29.15;43.28;98381.84;5091496;28;20028;-76
2021/07/02 08:25:25;;;;;;;0.00;0.00;;;;;;;29.31;41.95;98375.72;5091712;28;20040;-76
2021/07/02 08:30:48;;;;;;;0.10;0.10;;;;;;;29.42;39.41;98374.75;5056890;28;20063;-76
2021/07/02 08:33:18;;;;;;;0.85;0.63;;;;;;;29.39;41.03;98377.16;5091367;28;20056;-76
2021/07/02 08:35:43;;;;;;;0.10;0.10;;;;;;;29.51;41.67;98372.22;5091576;28;20123;-76
2021/07/02 08:38:09;;;;;;;0.90;0.13;;;;;;;29.49;41.51;98364.41;5091010;28;20166;-76
2021/07/02 08:40:34;;;;;;;0.00;0.00;;;;;;;29.54;41.26;98366.66;5091516;28;20031;-76
2021/07/02 08:43:00;;;;;;;0.00;0.00;;;;;;;29.64;41.71;98364.91;5091123;28;20028;-76
2021/07/02 08:45:25;;;;;;;0.00;0.00;;;;;;;29.75;40.08;98359.19;5091149;28;20054;-76
2021/07/02 08:47:52;;;;;;;0.22;0.08;;;;;;;29.84;39.31;98358.63;5091093;28;20043;-75
2021/07/02 08:50:18;;;;;;;0.15;0.15;;;;;;;29.84;40.73;98359.41;5091173;28;20032;-75
2021/07/02 08:52:44;;;;;;;0.00;0.00;;;;;;;29.98;39.98;98374.13;5091330;28;20024;-75
2021/07/02 08:55:11;;;;;;;0.00;0.00;;;;;;;30.03;39.14;98363.41;5090995;28;20080;-75
2021/07/02 08:57:37;;;;;;;1.67;0.85;;;;;;;30.06;38.58;98363.75;5091280;28;20032;-75
2021/07/02 09:00:03;;;;;;;0.05;0.05;;;;;;;30.15;40.04;98366.69;5072950;28;20586;-75
2021/07/02 09:02:30;;;;;;;0.03;0.03;;;;;;;30.26;40.70;98361.75;5090996;28;20376;-76
2021/07/02 09:04:57;;;;;;;0.30;0.17;;;;;;;30.37;38.91;98363.50;5090886;28;20160;-76
2021/07/02 09:07:23;;;;;;;0.10;0.10;;;;;;;30.40;39.50;98357.16;5091043;28;20483;-76
2021/07/02 09:09:59;;;;;;;0.00;0.00;;;;;;;30.46;40.69;98358.94;5091130;28;20031;-75
2021/07/02 09:12:26;;;;;;;0.00;0.00;;;;;;;30.56;41.02;98361.94;5091112;28;20035;-77
2021/07/02 09:15:12;;;;;;;0.00;0.00;;;;;;;30.65;40.58;98345.56;5089709;28;20024;-76
2021/07/02 09:17:57;;;;;;;0.57;0.57;;;;;;;30.69;40.77;98349.03;5092479;28;20081;-76
2021/07/02 09:20:35;;;;;;;0.10;0.10;;;;;;;30.72;39.64;98339.88;5095351;28;20035;-76
2021/07/02 09:23:03;;;;;;;0.45;0.45;;;;;;;30.62;38.14;98340.91;5094913;28;20024;-76
2021/07/02 09:25:28;;;;;;;0.15;0.15;;;;;;;30.46;38.66;98342.41;5094813;28;20051;-76
2021/07/02 09:27:56;;;;;;;0.20;0.20;;;;;;;30.35;37.81;98339.09;5094983;28;20035;-75
2021/07/02 09:30:27;;;;;;;0.20;0.20;;;;;;;30.26;38.32;98347.19;5094946;28;20035;-76
2021/07/02 09:32:55;;;;;;;0.10;0.10;;;;;;;30.15;39.44;98337.16;5094967;28;20024;-75
2021/07/02 09:35:22;;;;;;;;;;;;;;;30.11;40.07;98324.66;5095331;28;20039;-76
2021/07/02 09:37:51;;;;;;;0.55;0.20;;;;;;;30.02;40.63;98325.22;5094949;28;19999;-76
2021/07/02 09:40:28;;;;;;;0.30;0.30;;;;;;;29.93;39.70;98323.06;5094680;28;20112;-77
2021/07/02 09:43:18;;;;;;;0.00;0.00;;;;;;;29.93;39.44;98325.00;5094766;28;20028;-76
2021/07/02 09:45:44;;;;;;;0.10;0.10;;;;;;;29.83;39.68;98324.78;5082095;28;20498;-76
2021/07/02 09:48:11;;;;;;;0.22;0.22;;;;;;;29.80;41.57;98314.59;5094468;28;20118;-76
2021/07/02 09:50:58;;;;;;;0.20;0.20;;;;;;;29.62;40.91;98311.44;5094722;28;20034;-76
2021/07/02 09:53:30;;;;;;;0.47;0.47;;;;;;;29.57;41.10;98315.44;5094576;28;20049;-76
2021/07/02 09:56:00;;;;;;;0.35;0.30;;;;;;;29.53;41.84;98310.00;5094464;28;20036;-76
2021/07/02 09:58:28;;;;;;;0.10;0.10;;;;;;;29.42;40.56;98314.94;5094511;28;20050;-76
2021/07/02 10:00:56;;;;;;;1.40;1.30;;;;;;;29.37;40.12;98323.69;5094431;28;20030;-76
2021/07/02 10:03:30;;;;;;;0.30;0.30;;;;;;;29.30;41.12;98305.31;5094384;28;20024;-76
2021/07/02 10:05:56;;;;;;;0.10;0.10;;;;;;;29.27;39.43;98303.38;5094284;28;20043;-77
2021/07/02 10:08:27;;;;;;;0.10;0.10;;;;;;;29.21;40.37;98300.34;5094295;28;20103;-76
2021/07/02 10:10:54;;;;;;;2.47;1.65;;;;;;;29.14;41.56;98302.41;5094275;28;20028;-76
2021/07/02 10:13:23;;;;;;;0.10;0.10;;;;;;;29.20;41.72;98307.03;5093969;28;20028;-76
2021/07/02 10:15:50;;;;;;;0.00;0.00;;;;;;;29.27;40.91;98327.38;5075941;28;20036;-76
2021/07/02 10:18:16;;;;;;;0.00;0.00;;;;;;;29.22;41.22;98325.88;5093966;28;20117;-76
2021/07/02 10:20:44;;;;;;;0.10;0.05;;;;;;;29.29;40.32;98331.25;5094074;28;20499;-76
2021/07/02 10:23:11;;;;;;;0.30;0.30;;;;;;;29.28;39.50;98323.44;5093788;28;20028;-77
2021/07/02 10:25:40;;;;;;;0.38;0.38;;;;;;;29.20;39.32;98312.53;5093974;28;20044;-76
2021/07/02 10:28:06;;;;;;;0.28;0.28;;;;;;;29.12;37.99;98310.34;5093506;28;20068;-76
2021/07/02 10:30:32;;;;;;;0.85;0.85;;;;;;;29.10;38.47;98305.25;5093565;28;20055;-76
2021/07/02 10:32:59;;;;;;;0.20;0.20;;;;;;;29.08;38.58;98305.66;5093757;28;20471;-75
2021/07/02 10:35:28;;;;;;;0.20;0.20;;;;;;;29.11;38.41;98286.75;5093823;28;20032;-76
2021/07/02 10:37:58;;;;;;;0.03;0.03;;;;;;;29.17;38.20;98290.56;5093751;28;20035;-76
2021/07/02 10:40:34;;;;;;;0.17;0.10;;;;;;;29.18;34.35;98294.88;5093550;28;20032;-76
2021/07/02 10:43:18;;;;;;;0.22;0.22;;;;;;;29.12;34.51;98291.06;5093386;28;20095;-76
2021/07/02 10:46:08;;;;;;;0.52;0.50;;;;;;;29.14;35.70;98285.91;5093604;28;20034;-75
2021/07/02 10:48:57;;;;;;;0.52;0.52;;;;;;;29.18;36.12;98284.66;5093633;28;20081;-76
2021/07/02 10:51:35;;;;;;;1.65;0.80;;;;;;;29.19;37.12;98280.69;5093181;28;20089;-76
2021/07/02 10:54:09;;;;;;;0.75;0.75;;;;;;;29.17;37.23;98266.56;5093300;28;20445;-76
2021/07/02 10:56:35;;;;;;;0.10;0.10;;;;;;;29.23;37.71;98266.88;5093435;28;20028;-76
2021/07/02 10:59:02;;;;;;;0.20;0.20;;;;;;;29.33;38.86;98270.66;5091403;28;20032;-76
2021/07/02 11:01:31;;;;;;;0.00;0.00;;;;;;;29.44;39.43;98264.94;5093166;28;20032;-75
2021/07/02 11:04:45;;;;;;;0.10;0.10;;;;;;;29.62;38.10;98275.63;5093077;28;20035;-75
2021/07/02 11:07:13;;;;;;;0.00;0.00;;;;;;;29.67;37.63;98283.38;4990874;28;20030;-76
2021/07/02 11:09:55;;;;;;;0.00;0.00;;;;;;;29.75;38.20;98271.03;4991133;28;20030;-76
2021/07/02 11:12:36;;;;;;;0.10;0.10;;;;;;;29.78;37.06;98275.66;5057750;28;20134;-76
2021/07/02 11:15:02;;;;;;;0.32;0.10;;;;;;;29.77;36.08;98270.59;5092831;28;20028;-76
2021/07/02 11:17:34;;;;;;;0.20;0.15;;;;;;;29.75;36.72;98273.78;5092989;28;20101;-76
2021/07/02 11:20:23;;;;;;;0.20;0.20;;;;;;;29.82;36.46;98264.56;5092938;28;20107;-74
2021/07/02 11:22:55;;;;;;;0.00;0.00;;;;;;;29.83;35.55;98253.16;5079204;28;20036;-74
2021/07/02 11:25:31;;;;;;;0.17;0.17;;;;;;;29.86;37.24;98254.25;5092614;28;20127;-74
2021/07/02 11:28:00;;;;;;;0.15;0.10;;;;;;;29.88;38.42;98249.09;5092851;28;20021;-74
2021/07/02 11:30:35;;;;;;;0.10;0.10;;;;;;;29.85;37.54;98234.19;5092163;28;20610;-74
2021/07/02 11:33:01;;;;;;;0.13;0.13;;;;;;;29.82;38.58;98232.28;5092590;28;20028;-76
2021/07/02 11:35:30;;;;;;;0.05;0.05;;;;;;;29.70;37.55;98232.94;5092724;28;20067;-75
2021/07/02 11:38:02;;;;;;;0.22;0.22;;;;;;;29.69;38.19;98225.88;5092628;28;20132;-76
2021/07/02 11:40:49;;;;;;;0.17;0.17;;;;;;;29.71;38.26;98232.53;5091778;28;20082;-76